createdAt,value
2018-07-23T00:01:48.805Z,25.37
2018-07-23T00:04:15.175Z,25.37
2018-07-23T00:06:41.540Z,25.36
2018-07-23T00:09:07.924Z,25.37
2018-07-23T00:11:34.365Z,25.36
2018-07-23T00:14:00.699Z,25.33
2018-07-23T00:16:27.068Z,25.28
2018-07-23T00:18:53.417Z,25.31
2018-07-23T00:21:19.764Z,25.26
2018-07-23T00:23:46.130Z,25.29
2018-07-23T00:26:12.466Z,25.30
2018-07-23T00:28:38.813Z,25.26
2018-07-23T00:31:05.169Z,25.27
2018-07-23T00:33:31.555Z,25.25
2018-07-23T00:35:57.883Z,25.23
2018-07-23T00:38:24.249Z,25.23
2018-07-23T00:40:50.580Z,25.24
2018-07-23T00:43:16.942Z,25.22
2018-07-23T00:45:43.292Z,25.17
2018-07-23T00:48:09.672Z,25.21
2018-07-23T00:50:35.998Z,25.21
2018-07-23T00:53:02.333Z,25.21
2018-07-23T00:55:28.652Z,25.18
2018-07-23T00:57:55.032Z,25.19
2018-07-23T01:00:21.393Z,25.18
2018-07-23T01:02:47.745Z,25.06
2018-07-23T01:05:14.063Z,24.93
2018-07-23T01:07:40.420Z,24.83
2018-07-23T01:10:06.778Z,24.69
2018-07-23T01:12:33.123Z,24.59
2018-07-23T01:14:59.439Z,24.54
2018-07-23T01:17:25.807Z,24.59
2018-07-23T01:19:52.168Z,24.49
2018-07-23T01:22:18.639Z,24.44
2018-07-23T01:24:44.965Z,24.45
2018-07-23T01:27:11.547Z,24.41
2018-07-23T01:29:37.938Z,24.40
2018-07-23T01:32:04.274Z,24.39
2018-07-23T01:34:30.602Z,24.43
2018-07-23T01:36:57.021Z,24.42
2018-07-23T01:39:23.494Z,24.42
2018-07-23T01:41:49.860Z,24.40
2018-07-23T01:44:16.222Z,24.46
2018-07-23T01:46:42.589Z,24.34
2018-07-23T01:49:09.031Z,24.30
2018-07-23T01:51:35.382Z,24.34
2018-07-23T01:54:01.795Z,24.27
2018-07-23T01:56:28.164Z,24.28
2018-07-23T01:58:54.651Z,24.26
2018-07-23T02:01:21.058Z,24.22
2018-07-23T02:03:47.384Z,24.15
2018-07-23T02:06:13.744Z,24.18
2018-07-23T02:08:40.095Z,24.18
2018-07-23T02:11:06.480Z,24.25
2018-07-23T02:13:32.918Z,24.20
2018-07-23T02:15:59.328Z,24.20
2018-07-23T02:18:25.707Z,24.17
2018-07-23T02:20:52.110Z,24.14
2018-07-23T02:23:18.535Z,24.18
2018-07-23T02:25:44.883Z,24.18
2018-07-23T02:28:11.305Z,24.10
2018-07-23T02:30:37.734Z,24.03
2018-07-23T02:33:04.062Z,24.08
2018-07-23T02:35:30.446Z,24.05
2018-07-23T02:37:56.861Z,24.01
2018-07-23T02:40:23.240Z,24.03
2018-07-23T02:42:49.691Z,23.99
2018-07-23T02:45:16.030Z,23.96
2018-07-23T02:47:42.439Z,23.98
2018-07-23T02:50:08.836Z,23.93
2018-07-23T02:52:35.158Z,24.05
2018-07-23T02:55:01.503Z,23.96
2018-07-23T02:57:27.864Z,23.88
2018-07-23T02:59:54.343Z,23.86
2018-07-23T03:02:20.729Z,23.94
2018-07-23T03:04:47.066Z,23.88
2018-07-23T03:07:13.493Z,23.81
2018-07-23T03:09:39.926Z,23.90
2018-07-23T03:12:06.517Z,23.92
2018-07-23T03:14:32.859Z,23.86
2018-07-23T03:16:59.188Z,23.78
2018-07-23T03:19:25.537Z,23.81
2018-07-23T03:21:52.290Z,23.89
2018-07-23T03:24:18.694Z,24.00
2018-07-23T03:26:45.053Z,23.96
2018-07-23T03:29:11.401Z,23.93
2018-07-23T03:31:37.825Z,24.01
2018-07-23T03:34:04.281Z,24.03
2018-07-23T03:36:30.654Z,24.07
2018-07-23T03:38:57.032Z,24.14
2018-07-23T03:41:23.362Z,24.24
2018-07-23T03:43:49.699Z,24.26
2018-07-23T03:46:16.058Z,24.25
2018-07-23T03:48:42.476Z,24.37
2018-07-23T03:51:08.824Z,24.37
2018-07-23T03:53:35.188Z,24.31
2018-07-23T03:56:01.588Z,24.39
2018-07-23T03:58:27.929Z,24.44
2018-07-23T04:00:54.422Z,24.44
2018-07-23T04:03:20.862Z,24.50
2018-07-23T04:05:47.176Z,24.53
2018-07-23T04:08:13.529Z,24.60
2018-07-23T04:10:39.898Z,24.56
2018-07-23T04:13:06.244Z,24.55
2018-07-23T04:15:32.599Z,24.55
2018-07-23T04:17:58.935Z,24.62
2018-07-23T04:20:25.313Z,24.65
2018-07-23T04:22:51.678Z,24.76
2018-07-23T04:25:18.062Z,24.69
2018-07-23T04:27:44.469Z,24.76
2018-07-23T04:30:10.858Z,24.79
2018-07-23T04:32:37.200Z,24.77
2018-07-23T04:35:03.604Z,24.81
2018-07-23T04:37:29.982Z,24.82
2018-07-23T04:39:56.349Z,24.83
2018-07-23T04:42:22.744Z,24.81
2018-07-23T04:44:49.112Z,24.83
2018-07-23T04:47:15.446Z,24.85
2018-07-23T04:49:41.836Z,24.83
2018-07-23T04:52:08.171Z,24.89
2018-07-23T04:54:34.519Z,24.84
2018-07-23T04:57:01.065Z,24.89
2018-07-23T04:59:27.407Z,24.92
2018-07-23T05:01:53.774Z,24.96
2018-07-23T05:04:20.170Z,24.97
2018-07-23T05:06:46.606Z,25.07
2018-07-23T05:09:12.970Z,25.12
2018-07-23T05:11:39.364Z,25.06
2018-07-23T05:14:05.736Z,25.12
2018-07-23T05:16:32.058Z,25.17
2018-07-23T05:18:58.571Z,25.15
2018-07-23T05:21:24.993Z,25.16
2018-07-23T05:23:51.379Z,25.22
2018-07-23T05:26:17.718Z,25.18
2018-07-23T05:28:44.088Z,25.22
2018-07-23T05:31:10.465Z,25.20
2018-07-23T05:33:36.796Z,25.26
2018-07-23T05:36:03.216Z,25.29
2018-07-23T05:38:29.663Z,25.33
2018-07-23T05:40:56.013Z,25.37
2018-07-23T05:43:22.386Z,25.34
2018-07-23T05:45:48.748Z,25.33
2018-07-23T05:48:15.093Z,25.38
2018-07-23T05:50:41.477Z,25.42
2018-07-23T05:53:07.840Z,25.46
2018-07-23T05:55:34.167Z,25.51
2018-07-23T05:58:00.519Z,25.61
2018-07-23T06:00:26.960Z,25.62
2018-07-23T06:02:53.350Z,25.56
2018-07-23T06:05:19.666Z,25.64
2018-07-23T06:07:46.005Z,25.74
2018-07-23T06:10:12.421Z,25.97
2018-07-23T06:12:38.803Z,25.75
2018-07-23T06:15:05.206Z,26.03
2018-07-23T06:17:31.555Z,25.83
2018-07-23T06:19:57.892Z,25.92
2018-07-23T06:22:24.217Z,25.94
2018-07-23T06:24:50.585Z,25.92
2018-07-23T06:27:16.922Z,25.91
2018-07-23T06:29:43.288Z,25.90
2018-07-23T06:32:09.644Z,25.99
2018-07-23T06:34:36.001Z,25.85
2018-07-23T06:37:02.333Z,25.84
2018-07-23T06:39:28.738Z,25.95
2018-07-23T06:41:55.141Z,25.93
2018-07-23T06:44:23.062Z,25.94
2018-07-23T06:46:49.439Z,25.97
2018-07-23T06:49:15.806Z,26.04
2018-07-23T06:51:42.135Z,26.02
2018-07-23T06:54:08.591Z,26.15
2018-07-23T06:56:34.954Z,26.18
2018-07-23T06:59:01.332Z,26.16
2018-07-23T07:01:27.749Z,26.15
2018-07-23T07:03:54.134Z,26.17
2018-07-23T07:06:20.726Z,26.31
2018-07-23T07:08:47.080Z,26.32
2018-07-23T07:11:13.549Z,26.29
2018-07-23T07:13:39.964Z,26.40
2018-07-23T07:16:06.365Z,26.47
2018-07-23T07:18:32.690Z,26.43
2018-07-23T07:20:59.092Z,26.47
2018-07-23T07:23:25.550Z,26.45
2018-07-23T07:25:52.000Z,26.53
2018-07-23T07:28:18.339Z,26.45
2018-07-23T07:30:44.751Z,26.53
2018-07-23T07:33:11.139Z,26.50
2018-07-23T07:35:37.501Z,26.45
2018-07-23T07:38:03.934Z,26.49
2018-07-23T07:40:30.341Z,26.60
2018-07-23T07:42:56.688Z,26.58
2018-07-23T07:45:23.076Z,26.55
2018-07-23T07:47:49.633Z,26.62
2018-07-23T07:50:16.009Z,26.66
2018-07-23T07:52:42.349Z,26.59
2018-07-23T07:55:08.690Z,26.60
2018-07-23T07:57:35.058Z,26.66
2018-07-23T08:00:01.423Z,26.70
2018-07-23T08:02:27.764Z,26.81
2018-07-23T08:04:54.094Z,26.70
2018-07-23T08:07:20.570Z,26.70
2018-07-23T08:09:46.935Z,26.75
2018-07-23T08:12:14.061Z,26.81
2018-07-23T08:14:40.443Z,26.70
2018-07-23T08:17:06.813Z,26.76
2018-07-23T08:19:33.268Z,26.79
2018-07-23T08:21:59.624Z,26.88
2018-07-23T08:24:25.967Z,26.91
2018-07-23T08:26:52.349Z,26.89
2018-07-23T08:29:18.725Z,26.80
2018-07-23T08:31:45.213Z,26.80
2018-07-23T08:34:11.587Z,26.74
2018-07-23T08:36:37.940Z,26.63
2018-07-23T08:39:04.297Z,26.81
2018-07-23T08:41:31.019Z,26.75
2018-07-23T08:43:57.371Z,26.66
2018-07-23T08:46:23.825Z,26.66
2018-07-23T08:48:50.167Z,26.62
2018-07-23T08:51:16.549Z,26.65
2018-07-23T08:53:42.920Z,26.65
2018-07-23T08:56:09.296Z,26.61
2018-07-23T08:58:35.652Z,26.55
2018-07-23T09:01:02.010Z,26.52
2018-07-23T09:03:28.442Z,26.58
2018-07-23T09:05:54.802Z,26.59
2018-07-23T09:08:21.177Z,26.56
2018-07-23T09:10:47.520Z,26.46
2018-07-23T09:13:13.869Z,26.60
2018-07-23T09:15:40.249Z,26.45
2018-07-23T09:18:06.669Z,26.46
2018-07-23T09:20:33.014Z,26.47
2018-07-23T09:22:59.442Z,26.35
2018-07-23T09:25:25.852Z,26.44
2018-07-23T09:27:52.259Z,26.41
2018-07-23T09:30:18.660Z,26.47
2018-07-23T09:32:45.023Z,26.46
2018-07-23T09:35:11.448Z,26.44
2018-07-23T09:37:37.811Z,26.37
2018-07-23T09:40:04.172Z,26.61
2018-07-23T09:42:30.569Z,26.51
2018-07-23T09:44:56.982Z,26.48
2018-07-23T09:47:23.372Z,26.41
2018-07-23T09:49:49.727Z,26.50
2018-07-23T09:52:16.126Z,26.76
2018-07-23T09:54:42.506Z,26.62
2018-07-23T09:57:08.830Z,26.46
2018-07-23T09:59:35.209Z,26.67
2018-07-23T10:02:01.581Z,26.51
2018-07-23T10:04:27.950Z,26.52
2018-07-23T10:06:54.292Z,26.66
2018-07-23T10:09:20.757Z,26.69
2018-07-23T10:11:47.189Z,26.53
2018-07-23T10:14:13.659Z,26.59
2018-07-23T10:16:39.986Z,26.66
2018-07-23T10:19:06.424Z,26.68
2018-07-23T10:21:32.945Z,26.67
2018-07-23T10:23:59.328Z,26.55
2018-07-23T10:26:25.724Z,26.65
2018-07-23T10:28:52.078Z,26.57
2018-07-23T10:31:18.476Z,26.70
2018-07-23T10:33:44.985Z,26.65
2018-07-23T10:36:11.633Z,26.52
2018-07-23T10:38:38.093Z,26.54
2018-07-23T10:41:04.459Z,26.62
2018-07-23T10:43:30.943Z,26.61
2018-07-23T10:45:57.308Z,26.54
2018-07-23T10:48:23.643Z,26.66
2018-07-23T10:50:49.993Z,26.54
2018-07-23T10:53:16.434Z,26.54
2018-07-23T10:55:42.797Z,26.61
2018-07-23T10:58:09.199Z,26.51
2018-07-23T11:00:35.990Z,26.52
2018-07-23T11:03:02.411Z,26.64
2018-07-23T11:05:28.845Z,26.58
2018-07-23T11:07:55.296Z,26.71
2018-07-23T11:10:21.717Z,26.87
2018-07-23T11:12:48.168Z,26.98
2018-07-23T11:15:14.505Z,26.60
2018-07-23T11:17:41.381Z,26.64
2018-07-23T11:20:07.740Z,26.69
2018-07-23T11:22:34.111Z,26.66
2018-07-23T11:25:37.950Z,26.54
2018-07-23T11:27:26.868Z,26.61
2018-07-23T11:29:53.237Z,26.61
2018-07-23T11:32:19.575Z,26.63
2018-07-23T11:34:45.923Z,26.54
2018-07-23T11:37:12.270Z,26.55
2018-07-23T11:39:38.820Z,26.67
2018-07-23T11:42:05.187Z,26.38
2018-07-23T11:44:31.516Z,26.63
2018-07-23T11:46:58.013Z,26.49
2018-07-23T11:49:24.530Z,26.44
2018-07-23T11:51:50.962Z,26.58
2018-07-23T11:54:17.362Z,26.51
2018-07-23T11:56:43.870Z,26.63
2018-07-23T11:59:10.394Z,26.59
2018-07-23T12:01:36.716Z,26.42
2018-07-23T12:04:03.111Z,26.41
2018-07-23T12:06:29.545Z,26.52
2018-07-23T12:08:55.951Z,26.50
2018-07-23T12:11:22.285Z,26.60
2018-07-23T12:13:48.704Z,26.49
2018-07-23T12:16:15.102Z,26.32
2018-07-23T12:18:41.456Z,26.37
2018-07-23T12:21:07.935Z,26.32
2018-07-23T12:23:34.407Z,26.46
2018-07-23T12:26:00.832Z,26.48
2018-07-23T12:28:27.228Z,26.35
2018-07-23T12:30:53.584Z,26.53
2018-07-23T12:33:19.963Z,26.56
2018-07-23T12:35:46.295Z,26.55
2018-07-23T12:38:12.689Z,26.35
2018-07-23T12:40:39.060Z,26.44
2018-07-23T12:43:05.419Z,26.33
2018-07-23T12:45:31.821Z,26.41
2018-07-23T12:47:58.173Z,26.32
2018-07-23T12:50:24.585Z,26.32
2018-07-23T12:52:50.941Z,26.21
2018-07-23T12:55:17.316Z,26.26
2018-07-23T12:57:43.817Z,26.21
2018-07-23T13:00:10.178Z,26.18
2018-07-23T13:02:36.883Z,26.41
2018-07-23T13:05:03.366Z,26.29
2018-07-23T13:07:29.717Z,26.25
2018-07-23T13:09:56.095Z,26.43
2018-07-23T13:12:22.467Z,26.23
2018-07-23T13:14:48.800Z,26.27
2018-07-23T13:17:15.187Z,26.30
2018-07-23T13:19:41.528Z,26.52
2018-07-23T13:22:07.892Z,26.25
2018-07-23T13:24:34.301Z,26.44
2018-07-23T13:27:00.692Z,26.52
2018-07-23T13:29:27.047Z,26.34
2018-07-23T13:31:53.450Z,26.28
2018-07-23T13:34:19.817Z,26.17
2018-07-23T13:36:46.181Z,26.37
2018-07-23T13:39:12.551Z,26.33
2018-07-23T13:41:38.903Z,26.32
2018-07-23T13:44:05.324Z,26.41
2018-07-23T13:46:31.714Z,26.39
2018-07-23T13:48:58.071Z,26.36
2018-07-23T13:51:24.528Z,26.44
2018-07-23T13:53:50.967Z,26.36
2018-07-23T13:56:17.284Z,26.38
2018-07-23T13:58:43.624Z,26.45
2018-07-23T14:01:10.016Z,26.36
2018-07-23T14:03:36.358Z,26.40
2018-07-23T14:06:02.718Z,26.45
2018-07-23T14:08:29.040Z,26.34
2018-07-23T14:10:55.431Z,26.33
2018-07-23T14:13:21.774Z,26.39
2018-07-23T14:15:48.162Z,26.24
2018-07-23T14:18:14.487Z,26.44
2018-07-23T14:20:40.923Z,26.35
2018-07-23T14:23:07.271Z,26.46
2018-07-23T14:25:33.684Z,26.38
2018-07-23T14:28:00.022Z,26.43
2018-07-23T14:30:26.446Z,26.34
2018-07-23T14:32:52.828Z,26.28
2018-07-23T14:35:19.172Z,26.32
2018-07-23T14:37:45.521Z,26.41
2018-07-23T14:40:11.912Z,26.34
2018-07-23T14:42:38.285Z,26.38
2018-07-23T14:45:04.636Z,26.29
2018-07-23T14:47:31.006Z,26.24
2018-07-23T14:49:57.447Z,26.28
2018-07-23T14:52:23.837Z,26.31
2018-07-23T14:54:50.203Z,26.44
2018-07-23T14:57:16.535Z,26.39
2018-07-23T14:59:42.857Z,26.35
2018-07-23T15:02:09.230Z,26.32
2018-07-23T15:04:35.621Z,26.30
2018-07-23T15:07:01.954Z,26.29
2018-07-23T15:09:28.312Z,26.30
2018-07-23T15:11:54.658Z,26.25
2018-07-23T15:14:20.986Z,26.27
2018-07-23T15:16:47.471Z,26.28
2018-07-23T15:19:13.825Z,26.28
2018-07-23T15:21:40.216Z,26.16
2018-07-23T15:24:06.588Z,26.22
2018-07-23T15:26:32.962Z,26.10
2018-07-23T15:28:59.295Z,26.07
2018-07-23T15:31:25.651Z,26.07
2018-07-23T15:33:52.031Z,25.98
2018-07-23T15:36:18.379Z,26.04
2018-07-23T15:38:44.729Z,25.92
2018-07-23T15:41:11.059Z,25.79
2018-07-23T15:43:37.405Z,26.00
2018-07-23T15:46:03.851Z,25.82
2018-07-23T15:48:30.164Z,25.78
2018-07-23T15:50:56.576Z,25.83
2018-07-23T15:53:23.043Z,25.94
2018-07-23T15:55:49.431Z,25.89
2018-07-23T15:58:15.847Z,25.94
2018-07-23T16:00:42.233Z,25.80
2018-07-23T16:03:08.562Z,25.76
2018-07-23T16:05:34.892Z,25.85
2018-07-23T16:08:01.291Z,25.74
2018-07-23T16:10:27.651Z,25.84
2018-07-23T16:12:54.058Z,25.84
2018-07-23T16:15:20.379Z,25.75
2018-07-23T16:17:46.744Z,25.73
2018-07-23T16:20:13.110Z,25.61
2018-07-23T16:22:39.516Z,25.63
2018-07-23T16:25:05.846Z,25.55
2018-07-23T16:27:32.353Z,25.53
2018-07-23T16:29:58.708Z,25.55
2018-07-23T16:32:25.139Z,25.45
2018-07-23T16:34:51.470Z,25.49
2018-07-23T16:37:17.845Z,25.55
2018-07-23T16:39:44.245Z,25.38
2018-07-23T16:42:10.630Z,25.43
2018-07-23T16:44:36.964Z,25.50
2018-07-23T16:47:03.346Z,25.42
2018-07-23T16:49:29.878Z,25.44
2018-07-23T16:51:56.210Z,25.39
2018-07-23T16:54:22.535Z,25.23
2018-07-23T16:56:48.894Z,25.23
2018-07-23T16:59:15.263Z,25.21
2018-07-23T17:01:41.670Z,25.23
2018-07-23T17:04:07.995Z,25.22
2018-07-23T17:06:34.384Z,25.19
2018-07-23T17:09:00.748Z,25.18
2018-07-23T17:11:27.115Z,25.20
2018-07-23T17:13:53.444Z,25.26
2018-07-23T17:16:19.807Z,25.30
2018-07-23T17:18:46.343Z,25.37
2018-07-23T17:21:12.741Z,25.41
2018-07-23T17:23:39.075Z,25.27
2018-07-23T17:26:05.445Z,25.34
2018-07-23T17:28:31.771Z,25.23
2018-07-23T17:30:58.168Z,25.36
2018-07-23T17:33:24.567Z,25.26
2018-07-23T17:35:50.899Z,25.31
2018-07-23T17:38:17.246Z,25.31
2018-07-23T17:40:43.620Z,25.40
2018-07-23T17:43:09.940Z,25.29
2018-07-23T17:45:36.306Z,25.21
2018-07-23T17:48:02.658Z,25.21
2018-07-23T17:50:29.006Z,25.26
2018-07-23T17:52:55.352Z,25.18
2018-07-23T17:55:21.729Z,25.14
2018-07-23T17:57:48.297Z,25.15
2018-07-23T18:00:14.642Z,25.12
2018-07-23T18:02:41.058Z,25.26
2018-07-23T18:05:07.445Z,25.22
2018-07-23T18:07:33.805Z,25.37
2018-07-23T18:10:00.242Z,25.44
2018-07-23T18:12:26.589Z,25.45
2018-07-23T18:14:52.935Z,25.39
2018-07-23T18:17:19.278Z,25.39
2018-07-23T18:19:45.679Z,25.28
2018-07-23T18:22:12.088Z,25.25
2018-07-23T18:24:38.441Z,25.20
2018-07-23T18:27:04.818Z,25.33
2018-07-23T18:29:31.150Z,25.33
2018-07-23T18:31:57.492Z,25.37
2018-07-23T18:34:23.845Z,25.34
2018-07-23T18:36:50.180Z,25.31
2018-07-23T18:39:16.584Z,25.39
2018-07-23T18:41:42.916Z,25.35
2018-07-23T18:44:09.308Z,25.25
2018-07-23T18:46:35.693Z,25.29
2018-07-23T18:49:02.018Z,25.29
2018-07-23T18:51:28.350Z,25.06
2018-07-23T18:53:54.721Z,25.14
2018-07-23T18:56:21.206Z,25.21
2018-07-23T18:58:47.746Z,25.27
2018-07-23T19:01:14.109Z,25.30
2018-07-23T19:03:40.500Z,25.25
2018-07-23T19:06:06.918Z,25.26
2018-07-23T19:08:33.295Z,25.20
2018-07-23T19:10:59.652Z,25.23
2018-07-23T19:13:26.010Z,25.23
2018-07-23T19:15:52.400Z,25.06
2018-07-23T19:18:18.744Z,25.23
2018-07-23T19:20:45.183Z,25.23
2018-07-23T19:23:11.526Z,25.22
2018-07-23T19:25:37.854Z,25.20
2018-07-23T19:28:04.235Z,25.13
2018-07-23T19:30:30.619Z,25.02
2018-07-23T19:32:57.032Z,25.08
2018-07-23T19:35:23.425Z,24.95
2018-07-23T19:37:49.774Z,25.05
2018-07-23T19:40:16.097Z,25.05
2018-07-23T19:42:42.434Z,25.04
2018-07-23T19:45:08.803Z,25.03
2018-07-23T19:47:35.208Z,24.98
2018-07-23T19:50:01.532Z,24.99
2018-07-23T19:52:27.911Z,25.02
2018-07-23T19:54:54.230Z,25.01
2018-07-23T19:57:20.593Z,25.06
2018-07-23T19:59:46.917Z,25.03
2018-07-23T20:02:13.294Z,25.04
2018-07-23T20:04:39.633Z,25.10
2018-07-23T20:07:05.989Z,25.09
2018-07-23T20:09:32.457Z,25.14
2018-07-23T20:11:58.786Z,25.12
2018-07-23T20:14:25.171Z,25.10
2018-07-23T20:16:51.521Z,25.05
2018-07-23T20:19:17.897Z,25.02
2018-07-23T20:21:44.208Z,25.03
2018-07-23T20:24:11.285Z,25.01
2018-07-23T20:26:37.648Z,24.97
2018-07-23T20:29:04.102Z,24.98
2018-07-23T20:31:30.421Z,24.97
2018-07-23T20:33:56.782Z,24.95
2018-07-23T20:36:23.121Z,24.95
2018-07-23T20:38:49.553Z,24.92
2018-07-23T20:41:15.859Z,24.89
2018-07-23T20:43:42.198Z,24.90
2018-07-23T20:46:08.568Z,24.87
2018-07-23T20:48:34.890Z,24.87
2018-07-23T20:51:01.229Z,24.88
2018-07-23T20:53:27.556Z,24.84
2018-07-23T20:55:53.933Z,24.82
2018-07-23T20:58:20.255Z,24.80
2018-07-23T21:00:46.594Z,24.82
2018-07-23T21:03:12.938Z,24.80
2018-07-23T21:05:39.295Z,24.84
2018-07-23T21:08:05.616Z,24.77
2018-07-23T21:10:32.053Z,24.79
2018-07-23T21:12:58.450Z,24.75
2018-07-23T21:15:24.797Z,24.78
2018-07-23T21:17:51.153Z,24.73
2018-07-23T21:20:17.471Z,24.78
2018-07-23T21:22:43.841Z,24.73
2018-07-23T21:25:10.205Z,24.75
2018-07-23T21:27:37.229Z,24.77
2018-07-23T21:30:03.590Z,24.73
2018-07-23T21:32:30.068Z,24.68
2018-07-23T21:34:56.388Z,24.65
2018-07-23T21:37:22.718Z,24.68
2018-07-23T21:39:49.053Z,24.66
2018-07-23T21:42:15.407Z,24.65
2018-07-23T21:44:41.747Z,24.67
2018-07-23T21:47:08.108Z,24.62
2018-07-23T21:49:34.422Z,24.61
2018-07-23T21:52:00.730Z,24.64
2018-07-23T21:54:27.053Z,24.62
2018-07-23T21:56:53.424Z,24.61
2018-07-23T21:59:19.866Z,24.56
2018-07-23T22:01:46.223Z,24.57
2018-07-23T22:04:12.541Z,24.58
2018-07-23T22:06:38.873Z,24.56
2018-07-23T22:09:05.203Z,24.58
2018-07-23T22:11:31.766Z,24.73
2018-07-23T22:13:58.091Z,24.79
2018-07-23T22:16:24.467Z,24.71
2018-07-23T22:18:50.826Z,24.57
2018-07-23T22:21:17.140Z,24.54
2018-07-23T22:23:43.500Z,24.52
2018-07-23T22:26:09.834Z,24.54
2018-07-23T22:28:36.264Z,24.49
2018-07-23T22:31:02.581Z,24.47
2018-07-23T22:33:28.901Z,24.46
2018-07-23T22:35:55.215Z,24.50
2018-07-23T22:38:21.583Z,24.45
2018-07-23T22:40:48.022Z,24.46
2018-07-23T22:43:14.387Z,24.43
2018-07-23T22:45:40.748Z,24.44
2018-07-23T22:48:07.106Z,24.45
2018-07-23T22:50:33.442Z,24.40
2018-07-23T22:52:59.787Z,24.43
2018-07-23T22:55:26.157Z,24.41
2018-07-23T22:57:52.479Z,24.39
2018-07-23T23:00:18.934Z,24.41
2018-07-23T23:02:45.301Z,24.39
2018-07-23T23:05:11.698Z,24.39
2018-07-23T23:07:38.071Z,24.39
2018-07-23T23:10:04.398Z,24.35
2018-07-23T23:12:30.735Z,24.40
2018-07-23T23:14:57.051Z,24.41
2018-07-23T23:17:23.418Z,24.34
2018-07-23T23:19:49.757Z,24.33
2018-07-23T23:22:16.118Z,24.33
2018-07-23T23:24:42.434Z,24.31
2018-07-23T23:27:08.805Z,24.35
2018-07-23T23:29:35.118Z,24.32
2018-07-23T23:32:01.452Z,24.30
2018-07-23T23:34:27.771Z,24.31
2018-07-23T23:36:54.159Z,24.29
2018-07-23T23:39:20.478Z,24.25
2018-07-23T23:41:46.905Z,24.30
2018-07-23T23:44:13.233Z,24.28
2018-07-23T23:46:39.584Z,24.28
2018-07-23T23:49:05.941Z,24.28
2018-07-23T23:51:32.273Z,24.26
2018-07-23T23:53:58.623Z,24.25
2018-07-23T23:56:24.979Z,24.25
2018-07-23T23:58:51.337Z,24.26
